createdAt,value
2023-05-24T00:01:16.621Z,4.79
2023-05-24T00:03:49.455Z,4.90
2023-05-24T00:06:19.551Z,4.88
2023-05-24T00:08:50.192Z,4.87
2023-05-24T00:11:20.187Z,4.96
2023-05-24T00:13:50.223Z,5.13
2023-05-24T00:16:20.252Z,5.17
2023-05-24T00:18:53.019Z,4.84
2023-05-24T00:21:23.191Z,4.89
2023-05-24T00:23:53.338Z,4.81
2023-05-24T00:26:23.410Z,5.13
2023-05-24T00:28:58.727Z,4.90
2023-05-24T00:31:28.818Z,5.24
2023-05-24T00:34:01.359Z,4.87
2023-05-24T00:36:31.438Z,4.99
2023-05-24T00:39:01.507Z,5.28
2023-05-24T00:41:31.510Z,5.34
2023-05-24T00:44:02.189Z,5.36
2023-05-24T00:46:34.926Z,5.32
2023-05-24T00:49:07.726Z,5.27
2023-05-24T00:51:38.713Z,5.40
2023-05-24T00:54:09.690Z,5.41
2023-05-24T00:56:39.718Z,5.40
2023-05-24T00:59:09.957Z,5.67
2023-05-24T01:01:41.978Z,5.30
2023-05-24T01:04:14.743Z,5.49
2023-05-24T01:07:01.595Z,5.33
2023-05-24T01:09:43.614Z,5.63
2023-05-24T01:12:24.398Z,5.84
2023-05-24T01:15:05.150Z,5.59
2023-05-24T01:17:43.005Z,5.49
2023-05-24T01:20:21.018Z,5.55
2023-05-24T01:23:10.113Z,5.62
2023-05-24T01:25:56.230Z,5.42
2023-05-24T01:28:30.648Z,5.52
2023-05-24T01:31:03.006Z,5.24
2023-05-24T01:33:33.503Z,5.50
2023-05-24T01:36:03.513Z,5.40
2023-05-24T01:38:33.489Z,5.71
2023-05-24T01:41:14.940Z,5.47
2023-05-24T01:43:58.053Z,5.64
2023-05-24T01:46:39.081Z,5.56
2023-05-24T01:49:26.168Z,5.33
2023-05-24T01:52:04.981Z,5.88
2023-05-24T01:54:40.340Z,5.44
2023-05-24T01:57:13.231Z,5.34
2023-05-24T01:59:47.457Z,5.39
2023-05-24T02:02:17.954Z,5.61
2023-05-24T02:04:48.265Z,5.22
2023-05-24T02:07:19.409Z,5.39
2023-05-24T02:09:49.413Z,5.56
2023-05-24T02:12:19.560Z,5.44
2023-05-24T02:14:52.928Z,5.58
2023-05-24T02:17:25.969Z,5.40
2023-05-24T02:19:56.112Z,5.73
2023-05-24T02:22:26.123Z,5.42
2023-05-24T02:24:56.321Z,5.58
2023-05-24T02:27:26.319Z,5.48
2023-05-24T02:29:58.925Z,5.61
2023-05-24T02:32:29.070Z,5.61
2023-05-24T02:34:59.386Z,5.89
2023-05-24T02:37:29.395Z,5.71
2023-05-24T02:39:59.539Z,5.65
2023-05-24T02:42:29.527Z,5.59
2023-05-24T02:45:02.168Z,5.92
2023-05-24T02:47:32.768Z,5.72
2023-05-24T02:50:02.735Z,5.67
2023-05-24T02:52:33.320Z,5.67
2023-05-24T02:55:03.285Z,6.06
2023-05-24T02:57:34.733Z,5.60
2023-05-24T03:00:09.766Z,5.55
2023-05-24T03:02:41.413Z,5.71
2023-05-24T03:05:12.165Z,5.88
2023-05-24T03:07:42.571Z,5.58
2023-05-24T03:10:15.776Z,5.69
2023-05-24T03:12:46.500Z,5.49
2023-05-24T03:15:19.151Z,5.82
2023-05-24T03:17:49.743Z,5.75
2023-05-24T03:20:21.234Z,5.24
2023-05-24T03:22:51.362Z,5.34
2023-05-24T03:25:21.636Z,5.71
2023-05-24T03:27:52.020Z,5.40
2023-05-24T03:30:25.180Z,5.63
2023-05-24T03:32:58.427Z,5.28
2023-05-24T03:35:28.661Z,5.60
2023-05-24T03:37:59.739Z,5.40
2023-05-24T03:40:33.787Z,5.52
2023-05-24T03:43:15.975Z,5.33
2023-05-24T03:45:53.340Z,5.61
2023-05-24T03:48:23.654Z,5.95
2023-05-24T03:50:55.085Z,5.49
2023-05-24T03:53:25.076Z,5.72
2023-05-24T03:55:55.097Z,5.57
2023-05-24T03:58:25.709Z,5.48
2023-05-24T04:00:58.462Z,5.20
2023-05-24T04:03:28.881Z,5.48
2023-05-24T04:05:58.982Z,5.81
2023-05-24T04:08:28.949Z,5.78
2023-05-24T04:11:01.396Z,5.32
2023-05-24T04:13:31.419Z,4.94
2023-05-24T04:16:04.541Z,5.08
2023-05-24T04:18:34.568Z,5.54
2023-05-24T04:21:04.623Z,5.13
2023-05-24T04:23:35.468Z,5.03
2023-05-24T04:26:06.195Z,5.40
2023-05-24T04:28:36.317Z,5.37
2023-05-24T04:31:09.692Z,5.64
2023-05-24T04:33:40.436Z,5.31
2023-05-24T04:36:12.177Z,5.37
2023-05-24T04:38:42.711Z,5.02
2023-05-24T04:41:13.588Z,5.08
2023-05-24T04:43:43.753Z,5.04
2023-05-24T04:46:16.394Z,4.84
2023-05-24T04:48:46.538Z,5.14
2023-05-24T04:51:16.761Z,5.05
2023-05-24T04:53:48.161Z,5.06
2023-05-24T04:56:19.722Z,5.50
2023-05-24T04:58:50.907Z,5.56
2023-05-24T05:01:23.801Z,5.26
2023-05-24T05:03:53.966Z,5.04
2023-05-24T05:06:25.095Z,5.01
2023-05-24T05:08:56.116Z,4.92
2023-05-24T05:11:26.302Z,5.00
2023-05-24T05:13:56.889Z,5.10
2023-05-24T05:16:29.603Z,5.09
2023-05-24T05:18:59.785Z,5.06
2023-05-24T05:21:29.846Z,4.93
2023-05-24T05:23:59.896Z,4.71
2023-05-24T05:26:29.988Z,4.94
2023-05-24T05:29:00.620Z,4.90
2023-05-24T05:31:33.703Z,4.86
2023-05-24T05:34:03.755Z,4.89
2023-05-24T05:36:33.942Z,4.82
2023-05-24T05:39:03.898Z,4.96
2023-05-24T05:41:33.943Z,4.88
2023-05-24T05:44:06.859Z,4.90
2023-05-24T05:46:39.606Z,4.71
2023-05-24T05:49:10.329Z,4.72
2023-05-24T05:51:40.367Z,5.03
2023-05-24T05:54:15.675Z,4.82
2023-05-24T05:56:48.445Z,4.86
2023-05-24T05:59:18.632Z,4.85
2023-05-24T06:01:51.605Z,5.12
2023-05-24T06:04:22.007Z,5.09
2023-05-24T06:06:52.315Z,5.44
2023-05-24T06:09:22.795Z,5.57
2023-05-24T06:11:52.763Z,5.34
2023-05-24T06:14:25.323Z,5.12
2023-05-24T06:17:00.035Z,5.12
2023-05-24T06:19:31.308Z,5.31
2023-05-24T06:22:01.599Z,5.41
2023-05-24T06:24:34.735Z,5.73
2023-05-24T06:27:05.697Z,5.50
2023-05-24T06:29:35.897Z,5.09
2023-05-24T06:32:09.338Z,5.44
2023-05-24T06:34:39.372Z,5.27
2023-05-24T06:37:10.649Z,4.92
2023-05-24T06:39:40.691Z,5.33
2023-05-24T06:42:10.992Z,5.21
2023-05-24T06:44:41.028Z,6.70
2023-05-24T06:47:13.774Z,5.56
2023-05-24T06:49:43.809Z,4.96
2023-05-24T06:52:14.074Z,5.08
2023-05-24T06:54:44.286Z,5.29
2023-05-24T06:57:14.349Z,4.89
2023-05-24T06:59:44.411Z,4.94
2023-05-24T07:02:18.104Z,5.08
2023-05-24T07:04:48.787Z,4.72
2023-05-24T07:10:21.744Z,5.28
2023-05-24T07:12:52.393Z,5.27
2023-05-24T07:15:22.451Z,4.94
2023-05-24T07:17:55.118Z,5.23
2023-05-24T07:20:25.371Z,5.29
2023-05-24T07:22:55.441Z,5.62
2023-05-24T07:25:25.790Z,4.85
2023-05-24T07:27:55.879Z,4.55
2023-05-24T07:30:32.293Z,4.64
2023-05-24T07:33:05.686Z,5.31
2023-05-24T07:35:35.815Z,4.91
2023-05-24T07:38:06.004Z,4.65
2023-05-24T07:40:36.070Z,6.94
2023-05-24T07:43:06.198Z,5.31
2023-05-24T07:45:36.386Z,4.71
2023-05-24T07:48:09.179Z,4.84
2023-05-24T07:50:39.271Z,5.11
2023-05-24T07:53:09.340Z,4.37
2023-05-24T07:55:39.607Z,4.73
2023-05-24T07:58:09.893Z,4.71
2023-05-24T08:00:39.923Z,4.84
2023-05-24T08:03:14.802Z,5.01
2023-05-24T08:05:45.301Z,4.41
2023-05-24T08:08:15.849Z,4.64
2023-05-24T08:10:45.978Z,4.79
2023-05-24T08:13:16.200Z,4.51
2023-05-24T08:15:46.282Z,4.42
2023-05-24T08:18:18.920Z,4.55
2023-05-24T08:20:49.088Z,4.69
2023-05-24T08:23:19.156Z,6.84
2023-05-24T08:25:49.234Z,5.32
2023-05-24T08:28:29.684Z,4.74
2023-05-24T08:31:03.031Z,4.45
2023-05-24T08:33:36.097Z,4.66
2023-05-24T08:36:06.552Z,4.58
2023-05-24T08:38:36.566Z,4.36
2023-05-24T08:41:09.949Z,4.09
2023-05-24T08:43:41.756Z,4.32
2023-05-24T08:46:13.431Z,4.21
2023-05-24T08:48:50.395Z,3.98
2023-05-24T08:51:20.633Z,3.98
2023-05-24T08:53:54.684Z,4.14
2023-05-24T08:56:26.655Z,4.26
2023-05-24T08:58:57.794Z,4.70
2023-05-24T09:01:30.613Z,3.87
2023-05-24T09:04:07.678Z,4.27
2023-05-24T09:06:38.238Z,3.82
2023-05-24T09:09:12.887Z,4.47
2023-05-24T09:11:46.215Z,4.21
2023-05-24T09:14:17.106Z,4.52
2023-05-24T09:16:47.901Z,4.04
2023-05-24T09:19:23.335Z,3.70
2023-05-24T09:21:53.526Z,4.03
2023-05-24T09:24:23.703Z,4.07
2023-05-24T09:26:54.198Z,3.99
2023-05-24T09:29:26.383Z,4.69
2023-05-24T09:31:59.934Z,4.76
2023-05-24T09:34:32.870Z,4.17
2023-05-24T09:37:05.591Z,4.14
2023-05-24T09:39:36.035Z,4.56
2023-05-24T09:42:06.432Z,5.62
2023-05-24T09:44:36.520Z,3.84
2023-05-24T09:47:08.047Z,3.76
2023-05-24T09:49:42.071Z,4.21
2023-05-24T09:52:14.344Z,4.02
2023-05-24T09:54:48.345Z,5.38
2023-05-24T09:57:19.291Z,5.14
2023-05-24T09:59:49.585Z,4.62
2023-05-24T10:02:20.795Z,3.66
2023-05-24T10:05:01.977Z,3.72
2023-05-24T10:07:33.172Z,3.85
2023-05-24T10:10:07.504Z,3.71
2023-05-24T10:12:43.025Z,4.17
2023-05-24T10:15:14.411Z,3.68
2023-05-24T10:17:44.551Z,3.94
2023-05-24T10:20:18.723Z,4.02
2023-05-24T10:22:54.797Z,4.03
2023-05-24T10:25:27.347Z,4.19
2023-05-24T10:28:00.600Z,3.95
2023-05-24T10:30:37.902Z,4.15
2023-05-24T10:33:11.464Z,4.19
2023-05-24T10:35:44.906Z,3.93
2023-05-24T10:38:15.455Z,3.82
2023-05-24T10:40:46.219Z,3.57
2023-05-24T10:43:16.578Z,3.70
2023-05-24T10:45:51.762Z,3.68
2023-05-24T10:48:38.441Z,5.03
2023-05-24T10:51:42.007Z,4.24
2023-05-24T10:54:17.701Z,3.85
2023-05-24T10:56:49.947Z,3.67
2023-05-24T10:59:44.409Z,3.93
2023-05-24T11:02:16.849Z,3.83
2023-05-24T11:04:50.584Z,3.75
2023-05-24T11:07:23.181Z,3.83
2023-05-24T11:09:58.276Z,4.22
2023-05-24T11:12:38.758Z,3.57
2023-05-24T11:15:12.801Z,3.71
2023-05-24T11:18:12.911Z,3.96
2023-05-24T11:20:46.111Z,4.11
2023-05-24T11:23:20.556Z,4.26
2023-05-24T11:25:51.179Z,4.44
2023-05-24T11:28:22.159Z,3.91
2023-05-24T11:30:52.773Z,4.11
2023-05-24T11:33:24.489Z,4.04
2023-05-24T11:35:56.533Z,3.88
2023-05-24T11:38:29.368Z,3.95
2023-05-24T11:41:01.482Z,3.90
2023-05-24T11:43:33.807Z,4.07
2023-05-24T11:46:04.378Z,4.38
2023-05-24T11:48:35.168Z,3.99
2023-05-24T11:51:06.063Z,3.85
2023-05-24T11:53:38.686Z,3.62
2023-05-24T11:56:09.480Z,4.01
2023-05-24T11:58:47.879Z,4.07
2023-05-24T12:01:28.784Z,4.12
2023-05-24T12:03:58.901Z,4.39
2023-05-24T12:06:37.797Z,4.23
2023-05-24T12:09:13.457Z,4.20
2023-05-24T12:11:44.754Z,4.20
2023-05-24T12:14:16.430Z,4.38
2023-05-24T12:16:48.022Z,3.97
2023-05-24T12:21:59.535Z,4.16
2023-05-24T12:24:34.439Z,4.06
2023-05-24T12:27:08.003Z,4.28
2023-05-24T12:29:40.971Z,4.57
2023-05-24T12:32:15.636Z,4.41
2023-05-24T12:34:47.305Z,3.90
2023-05-24T12:37:18.758Z,3.99
2023-05-24T12:39:53.825Z,4.35
2023-05-24T12:42:24.828Z,4.69
2023-05-24T12:44:55.359Z,4.92
2023-05-24T12:47:25.952Z,4.32
2023-05-24T12:49:55.980Z,3.82
2023-05-24T12:52:26.888Z,4.23
2023-05-24T12:54:59.617Z,3.92
2023-05-24T12:57:29.614Z,4.00
2023-05-24T12:59:59.687Z,3.93
2023-05-24T13:02:29.787Z,3.81
2023-05-24T13:05:00.021Z,4.24
2023-05-24T13:07:30.315Z,4.28
2023-05-24T13:10:03.707Z,3.51
2023-05-24T13:12:34.310Z,3.68
2023-05-24T13:15:08.228Z,3.67
2023-05-24T13:17:38.603Z,3.91
2023-05-24T13:20:11.537Z,3.50
2023-05-24T13:22:42.722Z,3.62
2023-05-24T13:25:15.853Z,4.35
2023-05-24T13:27:46.022Z,3.94
2023-05-24T13:30:17.364Z,4.27
2023-05-24T13:32:49.891Z,3.83
2023-05-24T13:35:20.101Z,3.73
2023-05-24T13:37:50.202Z,3.69
2023-05-24T13:40:25.241Z,3.60
2023-05-24T13:42:55.810Z,3.67
2023-05-24T13:45:25.859Z,3.42
2023-05-24T13:50:34.135Z,3.45
2023-05-24T13:53:05.321Z,3.54
2023-05-24T13:55:39.555Z,3.25
2023-05-24T13:58:09.640Z,3.50
2023-05-24T14:00:39.746Z,3.89
2023-05-24T14:03:10.183Z,3.97
2023-05-24T14:05:40.579Z,3.69
2023-05-24T14:08:10.835Z,3.83
2023-05-24T14:10:43.438Z,3.45
2023-05-24T14:13:36.564Z,5.13
2023-05-24T14:16:03.594Z,4.51
2023-05-24T14:18:33.672Z,3.64
2023-05-24T14:21:03.666Z,3.94
2023-05-24T14:23:34.471Z,3.41
2023-05-24T14:26:07.307Z,3.73
2023-05-24T14:28:37.295Z,3.45
2023-05-24T14:31:07.438Z,3.43
2023-05-24T14:33:38.131Z,3.66
2023-05-24T14:36:09.334Z,3.56
2023-05-24T14:38:39.484Z,3.51
2023-05-24T14:41:12.330Z,3.53
2023-05-24T14:43:43.086Z,3.48
2023-05-24T14:46:13.319Z,3.41
2023-05-24T14:48:43.544Z,3.15
2023-05-24T14:51:13.716Z,3.45
2023-05-24T14:53:43.766Z,3.61
2023-05-24T14:56:19.800Z,3.38
2023-05-24T14:58:49.834Z,3.18
2023-05-24T15:01:20.078Z,3.54
2023-05-24T15:03:50.160Z,3.47
2023-05-24T15:06:20.236Z,5.58
2023-05-24T15:08:51.629Z,4.16
2023-05-24T15:11:24.217Z,3.77
2023-05-24T15:13:58.681Z,3.47
2023-05-24T15:16:29.092Z,3.81
2023-05-24T15:18:59.318Z,4.04
2023-05-24T15:21:29.392Z,3.62
2023-05-24T15:23:59.457Z,4.00
2023-05-24T15:26:32.199Z,3.97
2023-05-24T15:29:04.136Z,3.99
2023-05-24T15:31:34.261Z,4.32
2023-05-24T15:34:05.059Z,4.18
2023-05-24T15:36:35.223Z,3.86
2023-05-24T15:39:06.086Z,3.52
2023-05-24T15:41:39.518Z,3.73
2023-05-24T15:44:10.817Z,3.64
2023-05-24T15:46:42.504Z,3.75
2023-05-24T15:49:12.752Z,3.71
2023-05-24T15:54:15.868Z,4.22
2023-05-24T15:56:49.887Z,3.86
2023-05-24T15:59:21.529Z,3.84
2023-05-24T16:01:51.858Z,4.01
2023-05-24T16:04:21.998Z,4.10
2023-05-24T16:06:52.042Z,3.75
2023-05-24T16:09:22.036Z,3.60
2023-05-24T16:11:54.660Z,3.74
2023-05-24T16:14:24.814Z,4.31
2023-05-24T16:16:56.577Z,4.12
2023-05-24T16:19:28.204Z,3.72
2023-05-24T16:21:58.281Z,4.10
2023-05-24T16:24:28.314Z,3.91
2023-05-24T16:27:01.833Z,4.31
2023-05-24T16:29:32.587Z,4.00
2023-05-24T16:32:02.692Z,3.91
2023-05-24T16:34:41.458Z,3.91
2023-05-24T16:37:22.354Z,3.84
2023-05-24T16:39:52.437Z,4.13
2023-05-24T16:42:25.064Z,4.23
2023-05-24T16:44:55.106Z,5.42
2023-05-24T16:47:28.752Z,5.25
2023-05-24T16:49:59.627Z,4.58
2023-05-24T16:52:29.708Z,4.09
2023-05-24T16:54:59.690Z,3.74
2023-05-24T16:57:32.403Z,4.23
2023-05-24T17:00:04.157Z,4.21
2023-05-24T17:02:35.371Z,4.16
2023-05-24T17:05:05.706Z,4.05
2023-05-24T17:07:36.059Z,4.24
2023-05-24T17:10:06.710Z,4.09
2023-05-24T17:12:39.460Z,4.32
2023-05-24T17:15:10.564Z,3.87
2023-05-24T17:17:40.953Z,4.15
2023-05-24T17:20:12.037Z,4.45
2023-05-24T17:22:42.139Z,5.56
2023-05-24T17:25:12.361Z,4.95
2023-05-24T17:27:45.293Z,5.08
2023-05-24T17:30:15.829Z,4.45
2023-05-24T17:32:45.995Z,4.36
2023-05-24T17:35:16.065Z,4.61
2023-05-24T17:37:46.069Z,4.76
2023-05-24T17:40:16.717Z,4.83
2023-05-24T17:42:49.323Z,4.91
2023-05-24T17:45:19.644Z,4.57
2023-05-24T17:47:49.900Z,4.90
2023-05-24T17:50:20.084Z,5.25
2023-05-24T17:52:50.304Z,5.53
2023-05-24T17:55:20.530Z,5.31
2023-05-24T17:57:53.415Z,5.69
2023-05-24T18:00:23.626Z,5.39
2023-05-24T18:02:53.688Z,5.62
2023-05-24T18:05:23.896Z,5.92
2023-05-24T18:07:54.066Z,5.83
2023-05-24T18:10:24.303Z,5.57
2023-05-24T18:12:56.916Z,5.47
2023-05-24T18:15:27.085Z,5.97
2023-05-24T18:17:57.144Z,5.77
2023-05-24T18:20:30.265Z,5.84
2023-05-24T18:23:00.460Z,6.84
2023-05-24T18:25:30.645Z,7.15
2023-05-24T18:28:03.457Z,6.79
2023-05-24T18:30:33.578Z,5.70
2023-05-24T18:33:07.776Z,5.47
2023-05-24T18:35:38.648Z,5.29
2023-05-24T18:38:08.742Z,5.38
2023-05-24T18:40:38.890Z,5.68
2023-05-24T18:43:11.564Z,5.53
2023-05-24T18:45:41.886Z,5.76
2023-05-24T18:48:12.239Z,5.16
2023-05-24T18:50:42.262Z,5.37
2023-05-24T18:53:12.369Z,6.09
2023-05-24T18:55:42.648Z,5.89
2023-05-24T18:58:15.639Z,6.68
2023-05-24T19:00:45.846Z,6.73
2023-05-24T19:03:18.857Z,6.37
2023-05-24T19:05:49.444Z,6.26
2023-05-24T19:08:19.596Z,6.40
2023-05-24T19:10:49.654Z,6.56
2023-05-24T19:13:22.318Z,6.23
2023-05-24T19:15:53.756Z,6.63
2023-05-24T19:18:23.804Z,7.11
2023-05-24T19:20:53.808Z,7.23
2023-05-24T19:23:23.935Z,6.81
2023-05-24T19:25:53.976Z,6.15
2023-05-24T19:28:26.543Z,6.22
2023-05-24T19:30:56.544Z,6.26
2023-05-24T19:33:26.547Z,6.14
2023-05-24T19:35:56.641Z,5.31
2023-05-24T19:38:26.632Z,5.82
2023-05-24T19:40:57.824Z,5.76
2023-05-24T19:43:30.494Z,5.83
2023-05-24T19:46:00.806Z,6.28
2023-05-24T19:48:31.297Z,6.42
2023-05-24T19:51:01.493Z,5.96
2023-05-24T19:53:31.930Z,5.93
2023-05-24T19:56:02.378Z,6.31
2023-05-24T19:58:35.152Z,6.07
2023-05-24T20:01:05.223Z,6.00
2023-05-24T20:03:35.354Z,5.66
2023-05-24T20:06:05.433Z,5.34
2023-05-24T20:08:36.023Z,4.77
2023-05-24T20:11:06.653Z,5.01
2023-05-24T20:13:39.248Z,5.03
2023-05-24T20:16:09.914Z,5.50
2023-05-24T20:18:40.018Z,5.13
2023-05-24T20:21:10.530Z,5.16
2023-05-24T20:23:40.573Z,5.11
2023-05-24T20:26:10.619Z,4.98
2023-05-24T20:28:43.209Z,5.17
2023-05-24T20:31:13.264Z,5.09
2023-05-24T20:33:43.429Z,5.16
2023-05-24T20:36:15.164Z,5.26
2023-05-24T20:38:45.699Z,5.67
2023-05-24T20:41:15.694Z,5.66
2023-05-24T20:43:48.764Z,5.67
2023-05-24T20:46:19.135Z,5.67
2023-05-24T20:48:49.400Z,5.32
2023-05-24T20:51:19.488Z,5.89
2023-05-24T20:53:52.289Z,5.53
2023-05-24T20:56:23.299Z,5.62
2023-05-24T20:58:59.401Z,5.17
2023-05-24T21:01:32.086Z,5.13
2023-05-24T21:04:02.450Z,5.47
2023-05-24T21:06:33.967Z,5.38
2023-05-24T21:09:04.525Z,5.58
2023-05-24T21:11:34.682Z,5.61
2023-05-24T21:14:07.291Z,5.54
2023-05-24T21:16:37.460Z,5.36
2023-05-24T21:19:07.653Z,5.40
2023-05-24T21:21:37.839Z,5.48
2023-05-24T21:24:07.975Z,5.92
2023-05-24T21:26:38.043Z,5.84
2023-05-24T21:29:13.273Z,5.79
2023-05-24T21:31:43.456Z,5.46
2023-05-24T21:34:13.583Z,5.44
2023-05-24T21:36:43.632Z,5.61
2023-05-24T21:39:13.768Z,5.25
2023-05-24T21:41:43.829Z,5.54
2023-05-24T21:44:16.998Z,5.48
2023-05-24T21:46:49.701Z,5.36
2023-05-24T21:49:20.327Z,5.68
2023-05-24T21:51:50.589Z,5.49
2023-05-24T21:54:20.942Z,5.63
2023-05-24T21:56:51.055Z,5.42
2023-05-24T21:59:24.087Z,5.72
2023-05-24T22:01:54.154Z,5.96
2023-05-24T22:04:24.372Z,5.58
2023-05-24T22:06:54.502Z,5.94
2023-05-24T22:09:24.582Z,5.84
2023-05-24T22:11:57.946Z,5.43
2023-05-24T22:14:33.660Z,5.48
2023-05-24T22:17:03.699Z,5.63
2023-05-24T22:22:09.794Z,5.24
2023-05-24T22:24:39.813Z,5.45
2023-05-24T22:27:13.889Z,5.67
2023-05-24T22:29:46.784Z,5.84
2023-05-24T22:32:16.914Z,5.79
2023-05-24T22:34:47.356Z,5.54
2023-05-24T22:37:18.347Z,5.59
2023-05-24T22:39:50.338Z,5.77
2023-05-24T22:42:20.288Z,6.36
2023-05-24T22:44:52.886Z,5.81
2023-05-24T22:47:24.196Z,5.63
2023-05-24T22:49:55.110Z,5.59
2023-05-24T22:52:26.612Z,5.52
2023-05-24T22:54:57.296Z,5.20
2023-05-24T22:57:27.299Z,5.59
2023-05-24T22:59:59.841Z,5.78
2023-05-24T23:02:30.115Z,5.93
2023-05-24T23:05:00.454Z,5.71
2023-05-24T23:07:30.673Z,5.71
2023-05-24T23:10:03.216Z,5.86
2023-05-24T23:12:33.420Z,5.63
2023-05-24T23:15:06.714Z,5.53
2023-05-24T23:17:36.818Z,5.65
2023-05-24T23:20:10.187Z,5.70
2023-05-24T23:22:40.522Z,5.66
2023-05-24T23:25:12.299Z,5.76
2023-05-24T23:27:42.716Z,5.60
2023-05-24T23:30:15.655Z,5.68
2023-05-24T23:32:45.930Z,5.88
2023-05-24T23:35:16.215Z,5.95
2023-05-24T23:37:46.277Z,6.15
2023-05-24T23:40:16.750Z,5.90
2023-05-24T23:42:46.760Z,5.72
2023-05-24T23:45:19.581Z,5.58
2023-05-24T23:47:49.668Z,5.85
2023-05-24T23:50:22.604Z,5.88
2023-05-24T23:52:53.215Z,5.81
2023-05-24T23:55:24.853Z,5.80
2023-05-24T23:57:54.991Z,5.94
